sensor_id;sensor_type;location;lat;lon;timestamp;temperature;humidity
22838;DHT22;11585;51.450;-0.240;2022-07-06T00:01:37;21.10;99.90
22838;DHT22;11585;51.450;-0.240;2022-07-06T00:04:03;21.10;99.90
22838;DHT22;11585;51.450;-0.240;2022-07-06T00:06:28;21.00;99.90
22838;DHT22;11585;51.450;-0.240;2022-07-06T00:08:54;21.00;99.90
22838;DHT22;11585;51.450;-0.240;2022-07-06T00:11:20;21.00;99.90
22838;DHT22;11585;51.450;-0.240;2022-07-06T00:13:46;21.00;99.90
22838;DHT22;11585;51.450;-0.240;2022-07-06T00:16:12;20.90;99.90
22838;DHT22;11585;51.450;-0.240;2022-07-06T00:21:26;20.90;99.90
22838;DHT22;11585;51.450;-0.240;2022-07-06T00:23:52;20.80;99.90
22838;DHT22;11585;51.450;-0.240;2022-07-06T00:26:18;20.80;99.90
22838;DHT22;11585;51.450;-0.240;2022-07-06T00:28:45;20.80;99.90
22838;DHT22;11585;51.450;-0.240;2022-07-06T00:31:11;20.80;99.90
22838;DHT22;11585;51.450;-0.240;2022-07-06T00:33:37;20.70;99.90
22838;DHT22;11585;51.450;-0.240;2022-07-06T00:36:03;20.70;99.90
22838;DHT22;11585;51.450;-0.240;2022-07-06T00:38:30;20.70;99.90
22838;DHT22;11585;51.450;-0.240;2022-07-06T00:40:56;20.70;99.90
22838;DHT22;11585;51.450;-0.240;2022-07-06T00:43:21;20.70;99.90
22838;DHT22;11585;51.450;-0.240;2022-07-06T00:45:47;20.70;99.90
22838;DHT22;11585;51.450;-0.240;2022-07-06T00:48:14;20.60;99.90
22838;DHT22;11585;51.450;-0.240;2022-07-06T00:50:40;20.60;99.90
22838;DHT22;11585;51.450;-0.240;2022-07-06T00:53:07;20.60;99.90
22838;DHT22;11585;51.450;-0.240;2022-07-06T00:55:36;20.60;99.90
22838;DHT22;11585;51.450;-0.240;2022-07-06T00:58:05;20.50;99.90
22838;DHT22;11585;51.450;-0.240;2022-07-06T01:00:31;20.50;99.90
22838;DHT22;11585;51.450;-0.240;2022-07-06T01:02:57;20.50;99.90
22838;DHT22;11585;51.450;-0.240;2022-07-06T01:05:23;20.50;99.90
22838;DHT22;11585;51.450;-0.240;2022-07-06T01:07:52;20.40;99.90
22838;DHT22;11585;51.450;-0.240;2022-07-06T01:10:19;20.40;99.90
22838;DHT22;11585;51.450;-0.240;2022-07-06T01:12:47;20.40;99.90
22838;DHT22;11585;51.450;-0.240;2022-07-06T01:17:43;20.40;99.90
22838;DHT22;11585;51.450;-0.240;2022-07-06T01:20:19;20.30;99.90
22838;DHT22;11585;51.450;-0.240;2022-07-06T01:22:46;20.30;99.90
22838;DHT22;11585;51.450;-0.240;2022-07-06T01:25:12;20.30;99.90
22838;DHT22;11585;51.450;-0.240;2022-07-06T01:27:40;20.20;99.90
22838;DHT22;11585;51.450;-0.240;2022-07-06T01:30:13;20.20;99.90
22838;DHT22;11585;51.450;-0.240;2022-07-06T01:32:39;20.20;99.90
22838;DHT22;11585;51.450;-0.240;2022-07-06T01:35:07;20.20;99.90
22838;DHT22;11585;51.450;-0.240;2022-07-06T01:37:33;20.10;99.90
22838;DHT22;11585;51.450;-0.240;2022-07-06T01:39:59;20.10;99.90
22838;DHT22;11585;51.450;-0.240;2022-07-06T01:42:26;20.10;99.90
22838;DHT22;11585;51.450;-0.240;2022-07-06T01:44:52;20.00;99.90
22838;DHT22;11585;51.450;-0.240;2022-07-06T01:47:17;20.00;99.90
22838;DHT22;11585;51.450;-0.240;2022-07-06T01:49:43;20.00;99.90
22838;DHT22;11585;51.450;-0.240;2022-07-06T01:52:09;20.00;99.90
22838;DHT22;11585;51.450;-0.240;2022-07-06T01:54:34;20.00;99.90
22838;DHT22;11585;51.450;-0.240;2022-07-06T01:57:00;19.90;99.90
22838;DHT22;11585;51.450;-0.240;2022-07-06T01:59:47;19.90;99.90
22838;DHT22;11585;51.450;-0.240;2022-07-06T02:02:12;19.90;99.90
22838;DHT22;11585;51.450;-0.240;2022-07-06T02:04:38;19.80;99.90
22838;DHT22;11585;51.450;-0.240;2022-07-06T02:07:04;19.80;99.90
22838;DHT22;11585;51.450;-0.240;2022-07-06T02:09:30;19.80;99.90
22838;DHT22;11585;51.450;-0.240;2022-07-06T02:11:56;19.80;99.90
22838;DHT22;11585;51.450;-0.240;2022-07-06T02:14:21;19.70;99.90
22838;DHT22;11585;51.450;-0.240;2022-07-06T02:16:47;19.80;99.90
22838;DHT22;11585;51.450;-0.240;2022-07-06T02:19:16;19.70;99.90
22838;DHT22;11585;51.450;-0.240;2022-07-06T02:21:41;19.70;99.90
22838;DHT22;11585;51.450;-0.240;2022-07-06T02:24:07;19.60;99.90
22838;DHT22;11585;51.450;-0.240;2022-07-06T02:26:33;19.60;99.90
22838;DHT22;11585;51.450;-0.240;2022-07-06T02:29:00;19.60;99.90
22838;DHT22;11585;51.450;-0.240;2022-07-06T02:31:26;19.60;99.90
22838;DHT22;11585;51.450;-0.240;2022-07-06T02:33:52;19.60;99.90
22838;DHT22;11585;51.450;-0.240;2022-07-06T02:36:17;19.50;99.90
22838;DHT22;11585;51.450;-0.240;2022-07-06T02:39:03;19.50;99.90
22838;DHT22;11585;51.450;-0.240;2022-07-06T02:41:28;19.50;99.90
22838;DHT22;11585;51.450;-0.240;2022-07-06T02:43:54;19.50;99.90
22838;DHT22;11585;51.450;-0.240;2022-07-06T02:46:20;19.50;99.90
22838;DHT22;11585;51.450;-0.240;2022-07-06T02:48:45;19.50;99.90
22838;DHT22;11585;51.450;-0.240;2022-07-06T02:51:11;19.40;99.90
22838;DHT22;11585;51.450;-0.240;2022-07-06T02:53:37;19.40;99.90
22838;DHT22;11585;51.450;-0.240;2022-07-06T02:56:02;19.40;99.90
22838;DHT22;11585;51.450;-0.240;2022-07-06T02:58:28;19.40;99.90
22838;DHT22;11585;51.450;-0.240;2022-07-06T03:00:54;19.30;99.90
22838;DHT22;11585;51.450;-0.240;2022-07-06T03:03:19;19.30;99.90
22838;DHT22;11585;51.450;-0.240;2022-07-06T03:05:45;19.30;99.90
22838;DHT22;11585;51.450;-0.240;2022-07-06T03:08:13;19.30;99.90
22838;DHT22;11585;51.450;-0.240;2022-07-06T03:10:39;19.30;99.90
22838;DHT22;11585;51.450;-0.240;2022-07-06T03:13:04;19.20;99.90
22838;DHT22;11585;51.450;-0.240;2022-07-06T03:15:30;19.20;99.90
22838;DHT22;11585;51.450;-0.240;2022-07-06T03:17:57;19.20;99.90
22838;DHT22;11585;51.450;-0.240;2022-07-06T03:20:22;19.20;99.90
22838;DHT22;11585;51.450;-0.240;2022-07-06T03:22:48;19.20;99.90
22838;DHT22;11585;51.450;-0.240;2022-07-06T03:25:24;19.10;99.90
22838;DHT22;11585;51.450;-0.240;2022-07-06T03:27:50;19.10;99.90
22838;DHT22;11585;51.450;-0.240;2022-07-06T03:30:19;19.10;99.90
22838;DHT22;11585;51.450;-0.240;2022-07-06T03:32:48;19.10;99.90
22838;DHT22;11585;51.450;-0.240;2022-07-06T03:35:16;19.00;99.90
22838;DHT22;11585;51.450;-0.240;2022-07-06T03:37:42;19.10;99.90
22838;DHT22;11585;51.450;-0.240;2022-07-06T03:40:12;19.00;99.90
22838;DHT22;11585;51.450;-0.240;2022-07-06T03:42:38;19.00;99.90
22838;DHT22;11585;51.450;-0.240;2022-07-06T03:45:05;19.00;99.90
22838;DHT22;11585;51.450;-0.240;2022-07-06T03:47:31;19.00;99.90
22838;DHT22;11585;51.450;-0.240;2022-07-06T03:49:57;18.90;99.90
22838;DHT22;11585;51.450;-0.240;2022-07-06T03:52:23;19.00;99.90
22838;DHT22;11585;51.450;-0.240;2022-07-06T03:54:49;19.00;99.90
22838;DHT22;11585;51.450;-0.240;2022-07-06T03:57:18;18.90;99.90
22838;DHT22;11585;51.450;-0.240;2022-07-06T03:59:47;18.90;99.90
22838;DHT22;11585;51.450;-0.240;2022-07-06T04:02:13;18.90;99.90
22838;DHT22;11585;51.450;-0.240;2022-07-06T04:04:39;18.90;99.90
22838;DHT22;11585;51.450;-0.240;2022-07-06T04:07:05;18.90;99.90
22838;DHT22;11585;51.450;-0.240;2022-07-06T04:09:33;18.80;99.90
22838;DHT22;11585;51.450;-0.240;2022-07-06T04:12:00;18.90;99.90
22838;DHT22;11585;51.450;-0.240;2022-07-06T04:14:26;18.90;99.90
22838;DHT22;11585;51.450;-0.240;2022-07-06T04:16:53;18.80;99.90
22838;DHT22;11585;51.450;-0.240;2022-07-06T04:19:24;18.90;99.90
22838;DHT22;11585;51.450;-0.240;2022-07-06T04:21:50;18.80;99.90
22838;DHT22;11585;51.450;-0.240;2022-07-06T04:24:16;18.80;99.90
22838;DHT22;11585;51.450;-0.240;2022-07-06T04:26:42;18.80;99.90
22838;DHT22;11585;51.450;-0.240;2022-07-06T04:29:09;18.80;99.90
22838;DHT22;11585;51.450;-0.240;2022-07-06T04:31:37;18.80;99.90
22838;DHT22;11585;51.450;-0.240;2022-07-06T04:34:03;18.80;99.90
22838;DHT22;11585;51.450;-0.240;2022-07-06T04:36:30;18.80;99.90
22838;DHT22;11585;51.450;-0.240;2022-07-06T04:38:57;18.80;99.90
22838;DHT22;11585;51.450;-0.240;2022-07-06T04:41:23;18.80;99.90
22838;DHT22;11585;51.450;-0.240;2022-07-06T04:43:49;18.80;99.90
22838;DHT22;11585;51.450;-0.240;2022-07-06T04:46:15;18.80;99.90
22838;DHT22;11585;51.450;-0.240;2022-07-06T04:48:44;18.80;99.90
22838;DHT22;11585;51.450;-0.240;2022-07-06T04:51:10;18.80;99.90
22838;DHT22;11585;51.450;-0.240;2022-07-06T04:53:36;18.80;99.90
22838;DHT22;11585;51.450;-0.240;2022-07-06T04:56:02;18.80;99.90
22838;DHT22;11585;51.450;-0.240;2022-07-06T04:58:33;19.10;99.90
22838;DHT22;11585;51.450;-0.240;2022-07-06T05:01:02;18.80;99.90
22838;DHT22;11585;51.450;-0.240;2022-07-06T05:03:31;18.80;99.90
22838;DHT22;11585;51.450;-0.240;2022-07-06T05:06:00;18.80;99.90
22838;DHT22;11585;51.450;-0.240;2022-07-06T05:08:27;18.80;99.90
22838;DHT22;11585;51.450;-0.240;2022-07-06T05:10:56;18.80;99.90
22838;DHT22;11585;51.450;-0.240;2022-07-06T05:13:21;18.80;99.90
22838;DHT22;11585;51.450;-0.240;2022-07-06T05:15:48;18.70;99.90
22838;DHT22;11585;51.450;-0.240;2022-07-06T05:18:14;18.70;99.90
22838;DHT22;11585;51.450;-0.240;2022-07-06T05:20:40;18.70;99.90
22838;DHT22;11585;51.450;-0.240;2022-07-06T05:23:06;18.70;99.90
22838;DHT22;11585;51.450;-0.240;2022-07-06T05:25:32;18.70;99.90
22838;DHT22;11585;51.450;-0.240;2022-07-06T05:27:59;18.70;99.90
22838;DHT22;11585;51.450;-0.240;2022-07-06T05:30:25;18.70;99.90
22838;DHT22;11585;51.450;-0.240;2022-07-06T05:32:51;18.70;99.90
22838;DHT22;11585;51.450;-0.240;2022-07-06T05:35:17;18.70;99.90
22838;DHT22;11585;51.450;-0.240;2022-07-06T05:37:45;18.70;99.90
22838;DHT22;11585;51.450;-0.240;2022-07-06T05:40:11;18.70;99.90
22838;DHT22;11585;51.450;-0.240;2022-07-06T05:42:37;18.70;99.90
22838;DHT22;11585;51.450;-0.240;2022-07-06T05:45:03;18.70;99.90
22838;DHT22;11585;51.450;-0.240;2022-07-06T05:47:34;18.70;99.90
22838;DHT22;11585;51.450;-0.240;2022-07-06T05:50:19;18.70;99.90
22838;DHT22;11585;51.450;-0.240;2022-07-06T05:52:56;18.70;99.90
22838;DHT22;11585;51.450;-0.240;2022-07-06T05:55:24;18.70;99.90
22838;DHT22;11585;51.450;-0.240;2022-07-06T05:57:54;18.70;99.90
22838;DHT22;11585;51.450;-0.240;2022-07-06T06:00:25;18.70;99.90
22838;DHT22;11585;51.450;-0.240;2022-07-06T06:02:52;18.70;99.90
22838;DHT22;11585;51.450;-0.240;2022-07-06T06:05:19;18.70;99.90
22838;DHT22;11585;51.450;-0.240;2022-07-06T06:07:46;18.70;99.90
22838;DHT22;11585;51.450;-0.240;2022-07-06T06:10:17;18.70;99.90
22838;DHT22;11585;51.450;-0.240;2022-07-06T06:12:44;18.80;99.90
22838;DHT22;11585;51.450;-0.240;2022-07-06T06:15:11;18.80;99.90
22838;DHT22;11585;51.450;-0.240;2022-07-06T06:17:38;18.80;99.90
22838;DHT22;11585;51.450;-0.240;2022-07-06T06:20:06;18.80;99.90
22838;DHT22;11585;51.450;-0.240;2022-07-06T06:22:50;18.80;99.90
22838;DHT22;11585;51.450;-0.240;2022-07-06T06:25:27;18.80;99.90
22838;DHT22;11585;51.450;-0.240;2022-07-06T06:27:53;18.80;99.90
22838;DHT22;11585;51.450;-0.240;2022-07-06T06:30:19;18.80;99.90
22838;DHT22;11585;51.450;-0.240;2022-07-06T06:32:45;18.80;99.90
22838;DHT22;11585;51.450;-0.240;2022-07-06T06:35:11;18.80;99.90
22838;DHT22;11585;51.450;-0.240;2022-07-06T06:37:37;18.90;99.90
22838;DHT22;11585;51.450;-0.240;2022-07-06T06:40:04;18.90;99.90
22838;DHT22;11585;51.450;-0.240;2022-07-06T06:42:31;18.90;99.90
22838;DHT22;11585;51.450;-0.240;2022-07-06T06:44:57;19.10;99.90
22838;DHT22;11585;51.450;-0.240;2022-07-06T06:47:24;18.90;99.90
22838;DHT22;11585;51.450;-0.240;2022-07-06T06:49:50;18.90;99.90
22838;DHT22;11585;51.450;-0.240;2022-07-06T06:52:16;18.90;99.90
22838;DHT22;11585;51.450;-0.240;2022-07-06T06:54:41;18.90;99.90
22838;DHT22;11585;51.450;-0.240;2022-07-06T06:57:07;18.90;99.90
22838;DHT22;11585;51.450;-0.240;2022-07-06T06:59:33;18.90;99.90
22838;DHT22;11585;51.450;-0.240;2022-07-06T07:01:59;18.90;99.90
22838;DHT22;11585;51.450;-0.240;2022-07-06T07:04:25;18.90;99.90
22838;DHT22;11585;51.450;-0.240;2022-07-06T07:06:51;19.00;99.90
22838;DHT22;11585;51.450;-0.240;2022-07-06T07:09:17;19.00;99.90
22838;DHT22;11585;51.450;-0.240;2022-07-06T07:11:43;19.00;99.90
22838;DHT22;11585;51.450;-0.240;2022-07-06T07:14:09;19.00;99.90
22838;DHT22;11585;51.450;-0.240;2022-07-06T07:16:35;19.00;99.90
22838;DHT22;11585;51.450;-0.240;2022-07-06T07:19:01;19.10;99.90
22838;DHT22;11585;51.450;-0.240;2022-07-06T07:21:27;19.10;99.90
22838;DHT22;11585;51.450;-0.240;2022-07-06T07:23:53;19.10;99.90
22838;DHT22;11585;51.450;-0.240;2022-07-06T07:26:19;19.10;99.90
22838;DHT22;11585;51.450;-0.240;2022-07-06T07:28:47;19.10;99.90
22838;DHT22;11585;51.450;-0.240;2022-07-06T07:31:14;19.10;99.90
22838;DHT22;11585;51.450;-0.240;2022-07-06T07:33:39;19.10;99.90
22838;DHT22;11585;51.450;-0.240;2022-07-06T07:36:06;19.20;99.90
22838;DHT22;11585;51.450;-0.240;2022-07-06T07:38:33;19.20;99.90
22838;DHT22;11585;51.450;-0.240;2022-07-06T07:40:59;19.20;99.90
22838;DHT22;11585;51.450;-0.240;2022-07-06T07:43:25;19.30;99.90
22838;DHT22;11585;51.450;-0.240;2022-07-06T07:45:51;19.30;99.90
22838;DHT22;11585;51.450;-0.240;2022-07-06T07:48:17;19.30;99.90
22838;DHT22;11585;51.450;-0.240;2022-07-06T07:50:46;19.30;99.90
22838;DHT22;11585;51.450;-0.240;2022-07-06T07:53:12;19.30;99.90
22838;DHT22;11585;51.450;-0.240;2022-07-06T07:55:38;19.30;99.90
22838;DHT22;11585;51.450;-0.240;2022-07-06T07:58:04;19.40;99.90
22838;DHT22;11585;51.450;-0.240;2022-07-06T08:00:30;19.40;99.90
22838;DHT22;11585;51.450;-0.240;2022-07-06T08:02:56;19.40;99.90
22838;DHT22;11585;51.450;-0.240;2022-07-06T08:05:22;19.40;99.90
22838;DHT22;11585;51.450;-0.240;2022-07-06T08:07:48;19.40;99.90
22838;DHT22;11585;51.450;-0.240;2022-07-06T08:10:14;19.50;99.90
22838;DHT22;11585;51.450;-0.240;2022-07-06T08:12:40;19.50;99.90
22838;DHT22;11585;51.450;-0.240;2022-07-06T08:15:06;19.50;99.90
22838;DHT22;11585;51.450;-0.240;2022-07-06T08:17:33;19.60;99.90
22838;DHT22;11585;51.450;-0.240;2022-07-06T08:19:58;19.60;99.90
22838;DHT22;11585;51.450;-0.240;2022-07-06T08:22:25;19.60;99.90
22838;DHT22;11585;51.450;-0.240;2022-07-06T08:24:50;19.60;99.90
22838;DHT22;11585;51.450;-0.240;2022-07-06T08:27:16;19.60;99.90
22838;DHT22;11585;51.450;-0.240;2022-07-06T08:29:43;19.70;99.90
22838;DHT22;11585;51.450;-0.240;2022-07-06T08:32:09;19.70;99.90
22838;DHT22;11585;51.450;-0.240;2022-07-06T08:34:35;19.70;99.90
22838;DHT22;11585;51.450;-0.240;2022-07-06T08:37:01;19.70;99.90
22838;DHT22;11585;51.450;-0.240;2022-07-06T08:39:27;19.50;99.90
22838;DHT22;11585;51.450;-0.240;2022-07-06T08:41:57;19.80;99.90
22838;DHT22;11585;51.450;-0.240;2022-07-06T08:44:24;19.80;99.90
22838;DHT22;11585;51.450;-0.240;2022-07-06T08:46:52;19.80;99.90
22838;DHT22;11585;51.450;-0.240;2022-07-06T08:49:21;19.80;99.90
22838;DHT22;11585;51.450;-0.240;2022-07-06T08:51:48;19.90;99.90
22838;DHT22;11585;51.450;-0.240;2022-07-06T08:57:37;19.90;99.90
22838;DHT22;11585;51.450;-0.240;2022-07-06T09:00:07;20.00;99.90
22838;DHT22;11585;51.450;-0.240;2022-07-06T09:02:35;20.00;99.90
22838;DHT22;11585;51.450;-0.240;2022-07-06T09:05:03;20.00;99.90
22838;DHT22;11585;51.450;-0.240;2022-07-06T09:07:29;20.00;99.90
22838;DHT22;11585;51.450;-0.240;2022-07-06T09:09:56;20.10;99.90
22838;DHT22;11585;51.450;-0.240;2022-07-06T09:12:26;20.20;99.90
22838;DHT22;11585;51.450;-0.240;2022-07-06T09:14:54;20.20;99.90
22838;DHT22;11585;51.450;-0.240;2022-07-06T09:17:20;19.60;99.90
22838;DHT22;11585;51.450;-0.240;2022-07-06T09:19:49;20.30;99.90
22838;DHT22;11585;51.450;-0.240;2022-07-06T09:22:32;20.30;99.90
22838;DHT22;11585;51.450;-0.240;2022-07-06T09:27:36;20.40;99.90
22838;DHT22;11585;51.450;-0.240;2022-07-06T09:30:03;20.50;99.90
22838;DHT22;11585;51.450;-0.240;2022-07-06T09:32:29;20.50;99.90
22838;DHT22;11585;51.450;-0.240;2022-07-06T09:34:56;20.60;99.90
22838;DHT22;11585;51.450;-0.240;2022-07-06T09:37:22;20.60;99.90
22838;DHT22;11585;51.450;-0.240;2022-07-06T09:39:51;20.60;99.90
22838;DHT22;11585;51.450;-0.240;2022-07-06T09:42:25;20.70;99.90
22838;DHT22;11585;51.450;-0.240;2022-07-06T09:44:52;20.70;99.90
22838;DHT22;11585;51.450;-0.240;2022-07-06T09:47:21;20.80;99.90
22838;DHT22;11585;51.450;-0.240;2022-07-06T09:49:47;20.80;99.90
22838;DHT22;11585;51.450;-0.240;2022-07-06T09:52:14;20.90;99.90
22838;DHT22;11585;51.450;-0.240;2022-07-06T09:54:40;20.90;99.90
22838;DHT22;11585;51.450;-0.240;2022-07-06T09:57:07;21.00;99.90
22838;DHT22;11585;51.450;-0.240;2022-07-06T09:59:35;21.00;99.90
22838;DHT22;11585;51.450;-0.240;2022-07-06T10:02:05;21.00;99.90
22838;DHT22;11585;51.450;-0.240;2022-07-06T10:04:31;19.90;99.90
22838;DHT22;11585;51.450;-0.240;2022-07-06T10:06:58;21.10;99.90
22838;DHT22;11585;51.450;-0.240;2022-07-06T10:09:27;21.10;99.90
22838;DHT22;11585;51.450;-0.240;2022-07-06T10:11:55;21.20;99.90
22838;DHT22;11585;51.450;-0.240;2022-07-06T10:14:26;21.20;99.90
22838;DHT22;11585;51.450;-0.240;2022-07-06T10:16:55;21.20;99.90
22838;DHT22;11585;51.450;-0.240;2022-07-06T10:19:22;21.20;99.90
22838;DHT22;11585;51.450;-0.240;2022-07-06T10:21:49;21.20;99.90
22838;DHT22;11585;51.450;-0.240;2022-07-06T10:24:18;21.20;99.90
22838;DHT22;11585;51.450;-0.240;2022-07-06T10:26:45;21.20;99.90
22838;DHT22;11585;51.450;-0.240;2022-07-06T10:29:12;21.30;99.90
22838;DHT22;11585;51.450;-0.240;2022-07-06T10:31:43;21.30;99.90
22838;DHT22;11585;51.450;-0.240;2022-07-06T10:34:12;21.40;99.90
22838;DHT22;11585;51.450;-0.240;2022-07-06T10:36:39;21.40;99.90
22838;DHT22;11585;51.450;-0.240;2022-07-06T10:39:07;21.30;99.90
22838;DHT22;11585;51.450;-0.240;2022-07-06T10:41:52;21.40;99.90
22838;DHT22;11585;51.450;-0.240;2022-07-06T10:44:23;21.50;99.90
22838;DHT22;11585;51.450;-0.240;2022-07-06T10:46:57;21.50;99.90
22838;DHT22;11585;51.450;-0.240;2022-07-06T10:49:25;21.50;99.90
22838;DHT22;11585;51.450;-0.240;2022-07-06T10:51:56;21.60;99.90
22838;DHT22;11585;51.450;-0.240;2022-07-06T10:54:23;21.60;99.90
22838;DHT22;11585;51.450;-0.240;2022-07-06T10:56:51;21.70;99.90
22838;DHT22;11585;51.450;-0.240;2022-07-06T10:59:21;21.70;99.90
22838;DHT22;11585;51.450;-0.240;2022-07-06T11:04:42;21.80;99.90
22838;DHT22;11585;51.450;-0.240;2022-07-06T11:07:14;21.80;99.90
22838;DHT22;11585;51.450;-0.240;2022-07-06T11:09:57;21.90;99.90
22838;DHT22;11585;51.450;-0.240;2022-07-06T11:12:23;22.00;99.90
22838;DHT22;11585;51.450;-0.240;2022-07-06T11:14:53;22.00;99.90
22838;DHT22;11585;51.450;-0.240;2022-07-06T11:17:19;22.40;99.90
22838;DHT22;11585;51.450;-0.240;2022-07-06T11:20:13;22.10;99.90
22838;DHT22;11585;51.450;-0.240;2022-07-06T11:22:39;22.10;99.90
22838;DHT22;11585;51.450;-0.240;2022-07-06T11:25:08;22.20;99.90
22838;DHT22;11585;51.450;-0.240;2022-07-06T11:27:34;22.20;99.90
22838;DHT22;11585;51.450;-0.240;2022-07-06T11:30:01;22.30;99.90
22838;DHT22;11585;51.450;-0.240;2022-07-06T11:32:28;22.30;99.90
22838;DHT22;11585;51.450;-0.240;2022-07-06T11:34:56;22.40;99.90
22838;DHT22;11585;51.450;-0.240;2022-07-06T11:37:23;22.40;99.90
22838;DHT22;11585;51.450;-0.240;2022-07-06T11:39:51;22.40;99.90
22838;DHT22;11585;51.450;-0.240;2022-07-06T11:42:18;22.50;99.90
22838;DHT22;11585;51.450;-0.240;2022-07-06T11:44:44;22.50;99.90
22838;DHT22;11585;51.450;-0.240;2022-07-06T11:47:12;22.60;99.90
22838;DHT22;11585;51.450;-0.240;2022-07-06T11:49:42;22.60;99.90
22838;DHT22;11585;51.450;-0.240;2022-07-06T11:52:13;22.60;99.90
22838;DHT22;11585;51.450;-0.240;2022-07-06T11:54:42;22.60;99.90
22838;DHT22;11585;51.450;-0.240;2022-07-06T11:57:09;22.70;99.90
22838;DHT22;11585;51.450;-0.240;2022-07-06T11:59:40;22.70;99.90
22838;DHT22;11585;51.450;-0.240;2022-07-06T12:02:15;22.70;99.90
22838;DHT22;11585;51.450;-0.240;2022-07-06T12:04:42;22.80;99.90
22838;DHT22;11585;51.450;-0.240;2022-07-06T12:07:13;22.80;99.90
22838;DHT22;11585;51.450;-0.240;2022-07-06T12:09:43;22.80;99.90
22838;DHT22;11585;51.450;-0.240;2022-07-06T12:12:10;22.80;99.90
22838;DHT22;11585;51.450;-0.240;2022-07-06T12:14:38;22.80;99.90
22838;DHT22;11585;51.450;-0.240;2022-07-06T12:17:14;22.80;99.90
22838;DHT22;11585;51.450;-0.240;2022-07-06T12:19:41;22.80;99.90
22838;DHT22;11585;51.450;-0.240;2022-07-06T12:22:08;22.80;99.90
22838;DHT22;11585;51.450;-0.240;2022-07-06T12:24:35;22.80;99.90
22838;DHT22;11585;51.450;-0.240;2022-07-06T12:27:14;22.80;99.90
22838;DHT22;11585;51.450;-0.240;2022-07-06T12:29:40;22.90;99.90
22838;DHT22;11585;51.450;-0.240;2022-07-06T12:32:07;22.80;99.90
22838;DHT22;11585;51.450;-0.240;2022-07-06T12:34:33;22.90;99.90
22838;DHT22;11585;51.450;-0.240;2022-07-06T12:37:05;22.90;99.90
22838;DHT22;11585;51.450;-0.240;2022-07-06T12:39:50;22.80;99.90
22838;DHT22;11585;51.450;-0.240;2022-07-06T12:42:17;22.90;99.90
22838;DHT22;11585;51.450;-0.240;2022-07-06T12:44:51;22.90;99.90
22838;DHT22;11585;51.450;-0.240;2022-07-06T12:47:24;23.20;99.90
22838;DHT22;11585;51.450;-0.240;2022-07-06T12:50:08;22.90;99.90
22838;DHT22;11585;51.450;-0.240;2022-07-06T12:52:34;22.90;99.90
22838;DHT22;11585;51.450;-0.240;2022-07-06T12:55:04;22.90;99.90
22838;DHT22;11585;51.450;-0.240;2022-07-06T12:57:52;23.00;99.90
22838;DHT22;11585;51.450;-0.240;2022-07-06T13:00:27;22.90;99.90
22838;DHT22;11585;51.450;-0.240;2022-07-06T13:02:53;23.00;99.90
22838;DHT22;11585;51.450;-0.240;2022-07-06T13:05:25;22.70;99.90
22838;DHT22;11585;51.450;-0.240;2022-07-06T13:07:56;24.00;99.90
22838;DHT22;11585;51.450;-0.240;2022-07-06T13:10:23;23.50;99.90
22838;DHT22;11585;51.450;-0.240;2022-07-06T13:12:49;23.00;99.90
22838;DHT22;11585;51.450;-0.240;2022-07-06T13:15:16;23.00;99.90
22838;DHT22;11585;51.450;-0.240;2022-07-06T13:17:42;23.00;99.90
22838;DHT22;11585;51.450;-0.240;2022-07-06T13:20:11;23.00;99.90
22838;DHT22;11585;51.450;-0.240;2022-07-06T13:22:38;22.20;99.90
22838;DHT22;11585;51.450;-0.240;2022-07-06T13:25:04;23.00;99.90
22838;DHT22;11585;51.450;-0.240;2022-07-06T13:27:35;23.00;99.90
22838;DHT22;11585;51.450;-0.240;2022-07-06T13:30:01;23.10;99.90
22838;DHT22;11585;51.450;-0.240;2022-07-06T13:32:30;23.00;99.90
22838;DHT22;11585;51.450;-0.240;2022-07-06T13:34:56;23.00;99.90
22838;DHT22;11585;51.450;-0.240;2022-07-06T13:37:22;23.10;99.90
22838;DHT22;11585;51.450;-0.240;2022-07-06T13:39:48;23.10;99.90
22838;DHT22;11585;51.450;-0.240;2022-07-06T13:42:14;23.00;99.90
22838;DHT22;11585;51.450;-0.240;2022-07-06T13:44:40;23.10;99.90
22838;DHT22;11585;51.450;-0.240;2022-07-06T13:47:06;23.10;99.90
22838;DHT22;11585;51.450;-0.240;2022-07-06T13:49:33;23.10;99.90
22838;DHT22;11585;51.450;-0.240;2022-07-06T13:52:02;23.10;99.90
22838;DHT22;11585;51.450;-0.240;2022-07-06T13:54:32;23.10;99.90
22838;DHT22;11585;51.450;-0.240;2022-07-06T13:57:00;23.10;99.90
22838;DHT22;11585;51.450;-0.240;2022-07-06T13:59:31;23.10;99.90
22838;DHT22;11585;51.450;-0.240;2022-07-06T14:01:58;23.10;99.90
22838;DHT22;11585;51.450;-0.240;2022-07-06T14:04:30;23.10;99.90
22838;DHT22;11585;51.450;-0.240;2022-07-06T14:06:56;23.10;99.90
22838;DHT22;11585;51.450;-0.240;2022-07-06T14:09:26;23.10;99.90
22838;DHT22;11585;51.450;-0.240;2022-07-06T14:11:55;23.10;99.90
22838;DHT22;11585;51.450;-0.240;2022-07-06T14:14:21;23.10;99.90
22838;DHT22;11585;51.450;-0.240;2022-07-06T14:16:53;23.10;99.90
22838;DHT22;11585;51.450;-0.240;2022-07-06T14:19:22;23.20;99.90
22838;DHT22;11585;51.450;-0.240;2022-07-06T14:21:51;23.00;99.90
22838;DHT22;11585;51.450;-0.240;2022-07-06T14:24:20;23.20;99.90
22838;DHT22;11585;51.450;-0.240;2022-07-06T14:26:46;23.20;99.90
22838;DHT22;11585;51.450;-0.240;2022-07-06T14:29:12;23.20;99.90
22838;DHT22;11585;51.450;-0.240;2022-07-06T14:31:38;23.20;99.90
22838;DHT22;11585;51.450;-0.240;2022-07-06T14:34:04;23.20;99.90
22838;DHT22;11585;51.450;-0.240;2022-07-06T14:36:30;23.20;99.90
22838;DHT22;11585;51.450;-0.240;2022-07-06T14:38:56;23.20;99.90
22838;DHT22;11585;51.450;-0.240;2022-07-06T14:41:22;23.20;99.90
22838;DHT22;11585;51.450;-0.240;2022-07-06T14:43:51;23.20;99.90
22838;DHT22;11585;51.450;-0.240;2022-07-06T14:46:17;23.20;99.90
22838;DHT22;11585;51.450;-0.240;2022-07-06T14:48:46;23.20;99.90
22838;DHT22;11585;51.450;-0.240;2022-07-06T14:51:12;24.20;99.90
22838;DHT22;11585;51.450;-0.240;2022-07-06T14:53:38;23.20;99.90
22838;DHT22;11585;51.450;-0.240;2022-07-06T14:56:04;23.00;99.90
22838;DHT22;11585;51.450;-0.240;2022-07-06T14:58:33;23.20;99.90
22838;DHT22;11585;51.450;-0.240;2022-07-06T15:00:59;23.20;99.90
22838;DHT22;11585;51.450;-0.240;2022-07-06T15:03:27;23.20;99.90
22838;DHT22;11585;51.450;-0.240;2022-07-06T15:05:53;23.20;99.90
22838;DHT22;11585;51.450;-0.240;2022-07-06T15:08:19;23.20;99.90
22838;DHT22;11585;51.450;-0.240;2022-07-06T15:10:45;23.30;99.90
22838;DHT22;11585;51.450;-0.240;2022-07-06T15:13:12;23.30;99.90
22838;DHT22;11585;51.450;-0.240;2022-07-06T15:15:41;23.30;99.90
22838;DHT22;11585;51.450;-0.240;2022-07-06T15:18:08;23.30;99.90
22838;DHT22;11585;51.450;-0.240;2022-07-06T15:20:34;23.30;99.90
22838;DHT22;11585;51.450;-0.240;2022-07-06T15:23:04;23.40;99.90
22838;DHT22;11585;51.450;-0.240;2022-07-06T15:25:30;23.40;99.90
22838;DHT22;11585;51.450;-0.240;2022-07-06T15:27:58;23.40;99.90
22838;DHT22;11585;51.450;-0.240;2022-07-06T15:30:29;23.40;99.90
22838;DHT22;11585;51.450;-0.240;2022-07-06T15:32:58;23.40;99.90